Unionville, VA (22567)

3:32 AM EDT on April 21, 2015 (GMT -0400)
Fox Creek Farm (KS4Q) | | Change Station
CLOSE
Current Station
Personal Weather Station
Location: Unionville, VA
Elevation: 550 ft
Nearby Weather Stations

Elev 550 ft 38.26 °N, 77.96 °W | Updated 5 seconds ago

Overcast
Overcast
60.2 °F
Feels Like 60.2 °F
N
4.0
Wind Variable Wind from WSW
Gusts 6.0 mph

Today
High -- | Low -- °F
--% Chance of Precip.
Yesterday
High -- | Low -- °F
Precip. -- in
6:28 AM 7:53 PM
Waxing Crescent, 9% visible
Pressure 29.67 in
Visibility 10.0 miles
Clouds Mostly Cloudy 5000 ft
Overcast 11000 ft
Dew Point 52 °F
Humidity 74%
Rainfall 0.00 in
Snow Depth Not available.
UV 0 out of 12
Pollen 2.90 out of 12
Air Quality Not available.
Flu Activity Local Activity
METAR KOMH 210715Z AUTO 22004KT 10SM BKN050 OVC110 15/13 A2967 RMK AO2

More Conditions Fewer Conditions

Pressure 29.67 in
Visibility 10.0 miles
Clouds Mostly Cloudy 5000 ft
Overcast 11000 ft
Dew Point 52 °F
Humidity 74%
Rainfall 0.00 in
Snow Depth Not available.
UV 0 out of 12
Pollen 2.90 out of 12
Air Quality Not available.
Flu Activity Local Activity
METAR KOMH 210715Z AUTO 22004KT 10SM BKN050 OVC110 15/13 A2967 RMK AO2

More Conditions Fewer Conditions

10-Day Weather Forecast

Almanac

Astronomy

Apr. 21, 2015 Rise Set
Actual Time
Civil Twilight
Nautical Twilight
Astronomical Twilight
Moon
Length of Visible Light
Length of Day
Tomorrow will be .
, % of the Moon is Illuminated

Today's Extremes

State Highs State Lows

Community

WunderPhotos

Upload Photos

1,815,324 photos uploaded!

WunderBlogs® & News

Nearby

Air Quality

  Air Quality AQ Index Pollutant
Not available.

Snow Depth

Station Depth Elevation

Earthquake Activity

City Distance Mag. Time & Date
Minimum magnitude displayed is 2.5.

Coastal Water Temperatures

Place Temperature

Stations

Nearby Weather Stations

Station Location Temp. Windchill Dew Point Humidity Wind Precip. Elev Updated Type